Peru, New York
Current Conditions -  °F | °C
As of 9:53 PM on Monday 22 Dec 2014 (Local Time) from KPBG Reporting Station
Overcast Overcast  
Wind Chill: 22°   Ceiling: 5000
Heat Index: 22°   Visibility: 7mi
Dew Point: 18°   Wind: 3mph
Humidity: 85%   Direction: 340°NNW
Pressure: 30.29"   Gusts: NA
Location:  44.58°N, 73.55°W
Report Text: KPBG 230253Z AUTO 34003KT 7SM OVC050 M06/M08 A3029 RMK AO2 SLP263 T10561078 56007
Loading
Personal Weather Stations






























Interactive Weather Map New forecast layout! Learn more

10-Day Weather Forecast

Advertisements
Track Severe Weather on mobile